Time;durP1;ratioP1;P1;durP2;ratioP2;P2;SDS_P1;SDS_P2;PMS_P1;PMS_P2;Temp;Humidity;BMP_temperature;BMP_pressure;BME280_temperature;BME280_humidity;BME280_pressure;Samples;Min_cycle;Max_cycle;Signal;HPM_P1;HPM_P2
2021/01/09 00:01:00;;;;;;;;;;;13.00;84.40;;;;;;2087199;28;754;-52
2021/01/09 00:02:19;;;;;;;;;;;13.00;84.50;;;;;;2099820;28;787;-52
2021/01/09 00:03:39;;;;;;;;;;;12.90;84.50;;;;;;2097737;28;777;-52
2021/01/09 00:04:58;;;;;;;;;;;13.00;84.50;;;;;;2095557;28;732;-52
2021/01/09 00:06:17;;;;;;;;;;;13.00;84.70;;;;;;2086757;28;758;-54
2021/01/09 00:07:36;;;;;;;;;;;12.90;84.60;;;;;;2092156;28;756;-53
2021/01/09 00:08:55;;;;;;;;;;;12.90;84.60;;;;;;2088207;28;1395;-57
2021/01/09 00:10:15;;;;;;;;;;;12.90;84.90;;;;;;2079974;28;1186;-55
2021/01/09 00:11:34;;;;;;;;;;;12.90;84.90;;;;;;2091523;28;1918;-53
2021/01/09 00:12:53;;;;;;;;;;;12.90;85.20;;;;;;2079853;28;810;-52
2021/01/09 00:14:12;;;;;;;;;;;12.90;85.50;;;;;;2074860;28;771;-56
2021/01/09 00:15:31;;;;;;;;;;;12.90;85.70;;;;;;2083478;28;754;-55
2021/01/09 00:16:50;;;;;;;;;;;12.90;85.70;;;;;;2077421;28;781;-54
2021/01/09 00:18:10;;;;;;;;;;;12.90;85.30;;;;;;2090789;28;806;-56
2021/01/09 00:19:29;;;;;;;;;;;12.90;85.40;;;;;;2088371;28;727;-55
2021/01/09 00:20:48;;;;;;;;;;;12.90;85.60;;;;;;2076564;28;784;-54
2021/01/09 00:22:08;;;;;;;;;;;12.90;85.50;;;;;;2074368;28;972;-54
2021/01/09 00:23:27;;;;;;;;;;;12.90;85.60;;;;;;2074523;28;778;-55
2021/01/09 00:24:46;;;;;;;;;;;12.90;85.90;;;;;;2082031;28;776;-56
2021/01/09 00:26:06;;;;;;;;;;;12.90;85.60;;;;;;2081607;28;772;-54
2021/01/09 00:27:25;;;;;;;;;;;12.90;85.40;;;;;;2086582;28;728;-55
2021/01/09 00:28:44;;;;;;;;;;;12.80;85.60;;;;;;2090181;28;1328;-55
2021/01/09 00:30:03;;;;;;;;;;;12.80;85.70;;;;;;2090189;28;725;-52
2021/01/09 00:31:23;;;;;;;;;;;12.80;85.80;;;;;;2089955;28;1979;-56
2021/01/09 00:32:42;;;;;;;;;;;12.80;86.60;;;;;;2081663;28;737;-54
2021/01/09 00:34:01;;;;;;;;;;;12.80;86.90;;;;;;2086757;28;723;-53
2021/01/09 00:35:20;;;;;;;;;;;12.80;86.20;;;;;;2089157;28;741;-54
2021/01/09 00:36:46;;;;;;;;;;;12.80;85.90;;;;;;2092095;28;1268;-54
2021/01/09 00:38:05;;;;;;;;;;;12.80;86.20;;;;;;2081335;28;952;-54
2021/01/09 00:39:25;;;;;;;;;;;12.80;86.20;;;;;;2091492;28;1285;-53
2021/01/09 00:40:44;;;;;;;;;;;12.80;86.50;;;;;;2092656;28;980;-56
2021/01/09 00:42:03;;;;;;;;;;;12.80;86.60;;;;;;2098052;28;714;-52
2021/01/09 00:43:22;;;;;;;;;;;12.80;87.10;;;;;;2089387;28;736;-52
2021/01/09 00:44:41;;;;;;;;;;;12.70;86.90;;;;;;2094685;28;714;-51
2021/01/09 00:46:01;;;;;;;;;;;12.80;86.70;;;;;;2089494;28;756;-54
2021/01/09 00:47:20;;;;;;;;;;;12.70;86.50;;;;;;2089170;28;782;-53
2021/01/09 00:48:39;;;;;;;;;;;12.70;86.60;;;;;;2094954;28;1418;-56
2021/01/09 00:49:58;;;;;;;;;;;12.70;86.60;;;;;;2098098;28;716;-53
2021/01/09 00:51:18;;;;;;;;;;;12.70;86.70;;;;;;2089253;28;1906;-51
2021/01/09 00:52:37;;;;;;;;;;;12.70;86.70;;;;;;2102751;28;732;-51
2021/01/09 00:53:56;;;;;;;;;;;12.70;86.90;;;;;;2101277;28;793;-51
2021/01/09 00:55:15;;;;;;;;;;;12.70;86.90;;;;;;2097615;28;717;-52
2021/01/09 00:56:35;;;;;;;;;;;12.70;87.00;;;;;;2097897;28;710;-54
2021/01/09 00:57:54;;;;;;;;;;;12.70;87.10;;;;;;2098115;28;713;-52
2021/01/09 00:59:13;;;;;;;;;;;12.70;87.00;;;;;;2098171;28;744;-56
2021/01/09 01:00:32;;;;;;;;;;;12.70;87.20;;;;;;2098204;28;737;-54
2021/01/09 01:01:52;;;;;;;;;;;12.70;88.00;;;;;;2098120;28;721;-53
2021/01/09 01:03:11;;;;;;;;;;;12.70;87.30;;;;;;2096521;28;738;-54
2021/01/09 01:04:30;;;;;;;;;;;12.70;87.50;;;;;;2098128;28;756;-55
2021/01/09 01:05:49;;;;;;;;;;;12.70;87.40;;;;;;2098373;28;714;-53
2021/01/09 01:07:09;;;;;;;;;;;12.70;87.30;;;;;;2098006;28;725;-53
2021/01/09 01:08:28;;;;;;;;;;;12.70;87.50;;;;;;2092942;28;1423;-52
2021/01/09 01:09:47;;;;;;;;;;;12.60;87.50;;;;;;2095019;28;987;-55
2021/01/09 01:11:08;;;;;;;;;;;12.60;87.50;;;;;;2095305;28;1910;-54
2021/01/09 01:12:27;;;;;;;;;;;12.70;87.80;;;;;;2089276;28;736;-53
2021/01/09 01:13:46;;;;;;;;;;;12.60;88.00;;;;;;2102586;28;791;-53
2021/01/09 01:15:06;;;;;;;;;;;12.60;87.90;;;;;;2100431;28;729;-55
2021/01/09 01:16:25;;;;;;;;;;;12.60;87.60;;;;;;2097987;28;720;-53
2021/01/09 01:17:47;;;;;;;;;;;12.60;87.90;;;;;;2097873;28;709;-54
2021/01/09 01:19:07;;;;;;;;;;;12.60;88.50;;;;;;2098004;28;1345;-53
2021/01/09 01:20:26;;;;;;;;;;;12.60;88.00;;;;;;2089306;28;785;-52
2021/01/09 01:21:45;;;;;;;;;;;12.60;88.20;;;;;;2094353;28;823;-53
2021/01/09 01:23:05;;;;;;;;;;;12.60;88.00;;;;;;2097970;28;717;-53
2021/01/09 01:24:24;;;;;;;;;;;12.60;87.90;;;;;;2098289;28;754;-53
2021/01/09 01:25:43;;;;;;;;;;;12.60;88.00;;;;;;2088869;28;1087;-54
2021/01/09 01:27:02;;;;;;;;;;;12.60;88.10;;;;;;2085863;28;728;-54
2021/01/09 01:28:22;;;;;;;;;;;12.60;88.30;;;;;;2094151;28;1420;-54
2021/01/09 01:29:41;;;;;;;;;;;12.60;88.10;;;;;;2097874;28;711;-52
2021/01/09 01:31:00;;;;;;;;;;;12.60;88.20;;;;;;2097816;28;1910;-52
2021/01/09 01:32:19;;;;;;;;;;;12.60;89.20;;;;;;2097700;28;850;-52
2021/01/09 01:33:39;;;;;;;;;;;12.60;89.10;;;;;;2097882;28;714;-54
2021/01/09 01:34:58;;;;;;;;;;;12.60;89.20;;;;;;2097055;28;1008;-54
2021/01/09 01:36:17;;;;;;;;;;;12.50;88.30;;;;;;2097655;28;736;-52
2021/01/09 01:37:36;;;;;;;;;;;12.60;88.60;;;;;;2097829;28;751;-54
2021/01/09 01:38:56;;;;;;;;;;;12.50;88.50;;;;;;2081291;28;1346;-54
2021/01/09 01:40:15;;;;;;;;;;;12.50;88.80;;;;;;2078478;28;1004;-54
2021/01/09 01:41:34;;;;;;;;;;;12.50;88.70;;;;;;2077998;28;730;-54
2021/01/09 01:42:53;;;;;;;;;;;12.50;88.80;;;;;;2081294;28;776;-52
2021/01/09 01:44:13;;;;;;;;;;;12.50;88.80;;;;;;2081203;28;790;-56
2021/01/09 01:45:32;;;;;;;;;;;12.50;88.70;;;;;;2072068;28;744;-52
2021/01/09 01:46:51;;;;;;;;;;;12.50;88.90;;;;;;2077769;28;729;-54
2021/01/09 01:48:10;;;;;;;;;;;12.50;89.10;;;;;;2080846;28;728;-51
2021/01/09 01:49:29;;;;;;;;;;;12.50;89.10;;;;;;2072721;28;805;-52
2021/01/09 01:50:48;;;;;;;;;;;12.50;89.10;;;;;;2085685;28;745;-51
2021/01/09 01:52:08;;;;;;;;;;;12.50;89.10;;;;;;2075802;28;732;-51
2021/01/09 01:53:30;;;;;;;;;;;12.50;89.90;;;;;;2085728;28;755;-53
2021/01/09 01:54:49;;;;;;;;;;;12.50;89.60;;;;;;2074551;28;753;-52
2021/01/09 01:56:08;;;;;;;;;;;12.40;89.10;;;;;;2085650;28;751;-54
2021/01/09 01:57:27;;;;;;;;;;;12.50;89.30;;;;;;2083727;28;733;-52
2021/01/09 01:58:46;;;;;;;;;;;12.50;89.70;;;;;;2081034;28;1407;-53
2021/01/09 02:00:06;;;;;;;;;;;12.40;89.30;;;;;;2081371;28;730;-53
2021/01/09 02:01:31;;;;;;;;;;;12.40;89.40;;;;;;2072330;28;745;-52
2021/01/09 02:02:54;;;;;;;;;;;12.50;89.50;;;;;;2078704;28;701;-55
2021/01/09 02:04:13;;;;;;;;;;;12.50;89.60;;;;;;2072354;28;721;-51
2021/01/09 02:05:37;;;;;;;;;;;12.40;89.50;;;;;;2068811;28;749;-55
2021/01/09 02:06:56;;;;;;;;;;;12.40;89.80;;;;;;2078362;28;716;-50
2021/01/09 02:08:15;;;;;;;;;;;12.40;89.70;;;;;;2084944;28;1432;-52
2021/01/09 02:09:37;;;;;;;;;;;12.40;90.10;;;;;;2098305;28;904;-54
2021/01/09 02:10:58;;;;;;;;;;;12.40;89.60;;;;;;2079022;28;1082;-51
2021/01/09 02:12:18;;;;;;;;;;;12.40;89.80;;;;;;2090901;28;796;-52
2021/01/09 02:13:46;;;;;;;;;;;12.40;89.70;;;;;;2075478;28;749;-52
2021/01/09 02:15:06;;;;;;;;;;;12.40;90.30;;;;;;2092525;28;762;-53
2021/01/09 02:16:25;;;;;;;;;;;12.40;90.00;;;;;;2075375;28;753;-52
2021/01/09 02:17:45;;;;;;;;;;;12.40;90.00;;;;;;2082378;28;728;-53
2021/01/09 02:19:06;;;;;;;;;;;12.40;90.00;;;;;;2089073;28;1417;-51
2021/01/09 02:20:28;;;;;;;;;;;12.40;90.00;;;;;;2080355;28;803;-52
2021/01/09 02:21:47;;;;;;;;;;;12.30;90.00;;;;;;2094057;28;735;-51
2021/01/09 02:23:06;;;;;;;;;;;12.30;90.00;;;;;;2083928;28;743;-53
2021/01/09 02:24:26;;;;;;;;;;;12.40;90.30;;;;;;2094046;28;772;-54
2021/01/09 02:25:45;;;;;;;;;;;12.30;90.00;;;;;;2092422;28;855;-54
2021/01/09 02:27:04;;;;;;;;;;;12.40;90.10;;;;;;2089285;28;712;-52
2021/01/09 02:28:24;;;;;;;;;;;12.40;90.10;;;;;;2089022;28;1306;-52
2021/01/09 02:29:46;;;;;;;;;;;12.30;90.10;;;;;;2089431;28;710;-53
2021/01/09 02:31:05;;;;;;;;;;;12.30;90.00;;;;;;2089351;28;1914;-51
2021/01/09 02:32:25;;;;;;;;;;;12.30;90.10;;;;;;2080502;28;801;-51
2021/01/09 02:33:44;;;;;;;;;;;12.30;90.20;;;;;;2093873;28;737;-53
2021/01/09 02:35:03;;;;;;;;;;;12.30;90.20;;;;;;2082918;28;755;-53
2021/01/09 02:36:22;;;;;;;;;;;12.30;90.10;;;;;;2088535;28;729;-51
2021/01/09 02:37:44;;;;;;;;;;;12.30;90.20;;;;;;2084659;28;1218;-51
2021/01/09 02:39:03;;;;;;;;;;;12.30;90.60;;;;;;2080358;28;1301;-54
2021/01/09 02:40:22;;;;;;;;;;;12.30;90.30;;;;;;2093121;28;992;-51
2021/01/09 02:41:42;;;;;;;;;;;12.30;90.20;;;;;;2076907;28;1196;-53
2021/01/09 02:43:01;;;;;;;;;;;12.30;90.30;;;;;;2094244;28;992;-54
2021/01/09 02:44:20;;;;;;;;;;;12.30;90.40;;;;;;2092335;28;813;-53
2021/01/09 02:45:40;;;;;;;;;;;12.30;90.40;;;;;;2079772;28;742;-54
2021/01/09 02:46:59;;;;;;;;;;;12.30;90.40;;;;;;2093776;28;765;-52
2021/01/09 02:48:18;;;;;;;;;;;12.30;90.30;;;;;;2092193;28;1328;-55
2021/01/09 02:49:37;;;;;;;;;;;12.30;90.50;;;;;;2080335;28;741;-53
2021/01/09 02:50:56;;;;;;;;;;;12.30;90.40;;;;;;2085692;28;744;-54
2021/01/09 02:52:15;;;;;;;;;;;12.30;90.60;;;;;;2089147;28;974;-52
2021/01/09 02:53:34;;;;;;;;;;;12.20;90.80;;;;;;2089311;28;722;-53
2021/01/09 02:54:54;;;;;;;;;;;12.20;90.80;;;;;;2088378;28;730;-53
2021/01/09 02:56:13;;;;;;;;;;;12.30;90.50;;;;;;2089231;28;780;-53
2021/01/09 02:57:32;;;;;;;;;;;12.20;90.50;;;;;;2088984;28;702;-52
2021/01/09 02:58:51;;;;;;;;;;;12.20;90.60;;;;;;2080344;28;1575;-54
2021/01/09 03:00:11;;;;;;;;;;;12.20;90.70;;;;;;2087055;28;749;-53
2021/01/09 03:01:30;;;;;;;;;;;12.20;90.60;;;;;;2082089;28;723;-52
2021/01/09 03:02:50;;;;;;;;;;;12.20;90.60;;;;;;2079007;28;814;-54
2021/01/09 03:04:09;;;;;;;;;;;12.20;90.50;;;;;;2087177;28;768;-52
2021/01/09 03:05:28;;;;;;;;;;;12.20;90.70;;;;;;2081370;28;720;-56
2021/01/09 03:06:47;;;;;;;;;;;12.20;90.70;;;;;;2087495;28;752;-53
2021/01/09 03:08:07;;;;;;;;;;;12.20;90.70;;;;;;2082040;28;725;-54
2021/01/09 03:09:26;;;;;;;;;;;12.20;90.70;;;;;;2090067;28;1019;-52
2021/01/09 03:10:46;;;;;;;;;;;12.20;90.60;;;;;;2081449;28;1132;-52
2021/01/09 03:12:06;;;;;;;;;;;12.10;91.00;;;;;;2086280;28;1840;-52
2021/01/09 03:13:25;;;;;;;;;;;12.20;90.70;;;;;;2082044;28;989;-54
2021/01/09 03:14:44;;;;;;;;;;;12.20;90.60;;;;;;2085907;28;970;-53
2021/01/09 03:16:03;;;;;;;;;;;12.20;90.70;;;;;;2093322;28;1187;-52
2021/01/09 03:17:24;;;;;;;;;;;12.20;90.80;;;;;;2089585;28;2249;-53
2021/01/09 03:18:43;;;;;;;;;;;12.20;90.60;;;;;;2092986;28;1312;-52
2021/01/09 03:20:03;;;;;;;;;;;12.20;90.80;;;;;;2094254;28;1003;-52
2021/01/09 03:21:22;;;;;;;;;;;12.20;90.80;;;;;;2086867;28;1229;-52
2021/01/09 03:22:42;;;;;;;;;;;12.20;90.80;;;;;;2079901;28;1138;-56
2021/01/09 03:24:02;;;;;;;;;;;12.10;90.80;;;;;;2084644;28;769;-55
2021/01/09 03:25:21;;;;;;;;;;;12.10;90.90;;;;;;2089043;28;1032;-53
2021/01/09 03:26:40;;;;;;;;;;;12.10;91.10;;;;;;2095654;28;741;-56
2021/01/09 03:27:59;;;;;;;;;;;12.10;90.80;;;;;;2093603;28;749;-54
2021/01/09 03:29:18;;;;;;;;;;;12.10;90.90;;;;;;2093051;28;959;-55
2021/01/09 03:30:38;;;;;;;;;;;12.10;90.90;;;;;;2093738;28;744;-53
2021/01/09 03:31:57;;;;;;;;;;;12.10;90.90;;;;;;2096581;28;1894;-54
2021/01/09 03:33:16;;;;;;;;;;;12.10;90.90;;;;;;2094926;28;744;-54
2021/01/09 03:34:36;;;;;;;;;;;12.10;91.00;;;;;;2085191;28;729;-53
2021/01/09 03:35:55;;;;;;;;;;;12.10;90.90;;;;;;2089339;28;761;-53
2021/01/09 03:37:15;;;;;;;;;;;12.10;90.90;;;;;;2095107;28;796;-52
2021/01/09 03:38:34;;;;;;;;;;;12.10;91.00;;;;;;2087855;28;1425;-54
2021/01/09 03:39:53;;;;;;;;;;;12.10;91.00;;;;;;2080669;28;1048;-55
2021/01/09 03:41:12;;;;;;;;;;;12.10;91.00;;;;;;2092479;28;1220;-53
2021/01/09 03:42:32;;;;;;;;;;;12.10;91.30;;;;;;2098762;28;771;-51
2021/01/09 03:43:51;;;;;;;;;;;12.10;91.00;;;;;;2099110;28;788;-54
2021/01/09 03:45:10;;;;;;;;;;;12.10;91.30;;;;;;2098067;28;755;-53
2021/01/09 03:46:30;;;;;;;;;;;12.10;91.10;;;;;;2090164;28;757;-51
2021/01/09 03:47:49;;;;;;;;;;;12.10;91.10;;;;;;2095434;28;764;-52
2021/01/09 03:49:08;;;;;;;;;;;12.10;91.20;;;;;;2098906;28;1316;-52
2021/01/09 03:50:27;;;;;;;;;;;12.10;91.00;;;;;;2098471;28;721;-53
2021/01/09 03:51:46;;;;;;;;;;;12.00;91.10;;;;;;2098406;28;1965;-55
2021/01/09 03:53:05;;;;;;;;;;;12.00;91.10;;;;;;2089885;28;720;-53
2021/01/09 03:54:25;;;;;;;;;;;12.00;91.10;;;;;;2103396;28;807;-52
2021/01/09 03:55:44;;;;;;;;;;;12.00;91.10;;;;;;2101844;28;715;-53
2021/01/09 03:57:03;;;;;;;;;;;12.00;91.00;;;;;;2098848;28;697;-54
2021/01/09 03:58:23;;;;;;;;;;;12.00;91.10;;;;;;2089709;28;1496;-54
2021/01/09 03:59:42;;;;;;;;;;;12.00;91.10;;;;;;2095469;28;768;-51
2021/01/09 04:01:01;;;;;;;;;;;12.00;91.60;;;;;;2098749;28;725;-51
2021/01/09 04:02:20;;;;;;;;;;;12.00;91.50;;;;;;2098421;28;783;-51
2021/01/09 04:03:40;;;;;;;;;;;12.00;91.60;;;;;;2099077;28;718;-52
2021/01/09 04:05:00;;;;;;;;;;;12.00;91.20;;;;;;2098091;28;721;-52
2021/01/09 04:06:20;;;;;;;;;;;12.00;91.10;;;;;;2089861;28;746;-53
2021/01/09 04:07:40;;;;;;;;;;;12.00;91.20;;;;;;2095414;28;717;-51
2021/01/09 04:08:59;;;;;;;;;;;12.00;91.30;;;;;;2091450;28;1320;-51
2021/01/09 04:10:18;;;;;;;;;;;12.00;91.30;;;;;;2082294;28;1162;-51
2021/01/09 04:11:37;;;;;;;;;;;12.00;91.20;;;;;;2078057;28;1917;-54
2021/01/09 04:12:57;;;;;;;;;;;12.00;91.30;;;;;;2081871;28;706;-54
2021/01/09 04:14:16;;;;;;;;;;;12.00;91.30;;;;;;2070603;28;774;-52
2021/01/09 04:15:35;;;;;;;;;;;12.00;91.40;;;;;;2079738;28;2348;-52
2021/01/09 04:16:54;;;;;;;;;;;12.00;91.60;;;;;;2089560;28;737;-54
2021/01/09 04:18:13;;;;;;;;;;;11.90;91.60;;;;;;2089708;28;1408;-52
2021/01/09 04:19:32;;;;;;;;;;;12.00;91.60;;;;;;2081771;28;1337;-54
2021/01/09 04:20:52;;;;;;;;;;;11.90;91.50;;;;;;2089093;28;1061;-51
2021/01/09 04:22:11;;;;;;;;;;;12.00;91.40;;;;;;2087260;28;1497;-51
2021/01/09 04:23:30;;;;;;;;;;;11.90;91.30;;;;;;2089208;28;813;-53
2021/01/09 04:24:50;;;;;;;;;;;11.90;91.30;;;;;;2087027;28;1555;-56
2021/01/09 04:26:13;;;;;;;;;;;11.90;91.40;;;;;;2087807;28;1276;-54
2021/01/09 04:27:32;;;;;;;;;;;11.90;91.50;;;;;;2081789;28;1370;-53
2021/01/09 04:28:51;;;;;;;;;;;11.90;91.40;;;;;;2083999;28;1401;-54
2021/01/09 04:30:11;;;;;;;;;;;11.90;91.70;;;;;;2088970;28;1425;-53
2021/01/09 04:31:30;;;;;;;;;;;11.90;91.80;;;;;;2090057;28;1969;-53
2021/01/09 04:32:49;;;;;;;;;;;11.90;91.50;;;;;;2092383;28;1603;-54
2021/01/09 04:34:09;;;;;;;;;;;11.90;91.50;;;;;;2092792;28;1455;-52
2021/01/09 04:35:28;;;;;;;;;;;11.90;91.50;;;;;;2081902;28;1421;-52
2021/01/09 04:36:47;;;;;;;;;;;11.90;91.40;;;;;;2088833;28;1796;-54
2021/01/09 04:38:07;;;;;;;;;;;11.90;91.50;;;;;;2090997;28;1441;-52
2021/01/09 04:39:26;;;;;;;;;;;11.90;91.60;;;;;;2096874;28;1230;-51
2021/01/09 04:40:45;;;;;;;;;;;11.90;91.50;;;;;;2093013;28;1360;-52
2021/01/09 04:42:04;;;;;;;;;;;11.90;91.60;;;;;;2091267;28;1394;-50
2021/01/09 04:43:23;;;;;;;;;;;11.90;91.60;;;;;;2092599;28;1340;-52
2021/01/09 04:44:43;;;;;;;;;;;11.90;91.50;;;;;;2085523;28;1460;-53
2021/01/09 04:46:02;;;;;;;;;;;11.90;91.60;;;;;;2096963;28;1258;-51
2021/01/09 04:47:21;;;;;;;;;;;11.90;91.60;;;;;;2087989;28;1397;-52
2021/01/09 04:48:40;;;;;;;;;;;11.90;91.50;;;;;;2088859;28;1466;-52
2021/01/09 04:50:00;;;;;;;;;;;11.90;91.90;;;;;;2082973;28;1319;-53
2021/01/09 04:51:19;;;;;;;;;;;11.90;91.50;;;;;;2091440;28;1902;-52
2021/01/09 04:52:38;;;;;;;;;;;11.80;91.60;;;;;;2086799;28;1479;-54
2021/01/09 04:53:58;;;;;;;;;;;11.80;91.70;;;;;;2093152;28;918;-51
2021/01/09 04:55:17;;;;;;;;;;;11.80;91.70;;;;;;2076227;28;1425;-53
2021/01/09 04:56:36;;;;;;;;;;;11.80;91.70;;;;;;2083238;28;1460;-51
2021/01/09 04:57:59;;;;;;;;;;;11.80;91.60;;;;;;2075802;28;1707;-53
2021/01/09 04:59:18;;;;;;;;;;;11.80;91.70;;;;;;2082186;28;1380;-55
2021/01/09 05:00:37;;;;;;;;;;;11.80;91.70;;;;;;2085060;28;1450;-52
2021/01/09 05:01:57;;;;;;;;;;;11.80;91.80;;;;;;2072774;28;1418;-52
2021/01/09 05:03:16;;;;;;;;;;;11.80;91.70;;;;;;2088087;28;1475;-51
2021/01/09 05:04:35;;;;;;;;;;;11.80;92.10;;;;;;2082331;28;1641;-53
2021/01/09 05:05:54;;;;;;;;;;;11.80;91.80;;;;;;2091769;28;1100;-53
2021/01/09 05:07:14;;;;;;;;;;;11.80;91.80;;;;;;2093014;28;1470;-51
2021/01/09 05:08:33;;;;;;;;;;;11.80;91.80;;;;;;2094491;28;1515;-53
2021/01/09 05:09:58;;;;;;;;;;;11.80;91.80;;;;;;2093054;28;1230;-52
2021/01/09 05:11:18;;;;;;;;;;;11.80;91.90;;;;;;2091730;28;1898;-56
2021/01/09 05:12:39;;;;;;;;;;;11.80;91.80;;;;;;2090438;28;1216;-52
2021/01/09 05:13:58;;;;;;;;;;;11.80;92.20;;;;;;2078102;28;1577;-51
2021/01/09 05:15:17;;;;;;;;;;;11.80;91.90;;;;;;2093816;28;1261;-53
2021/01/09 05:16:36;;;;;;;;;;;11.80;91.90;;;;;;2097028;28;1445;-52
2021/01/09 05:17:56;;;;;;;;;;;11.70;91.90;;;;;;2094160;28;1246;-52
2021/01/09 05:19:15;;;;;;;;;;;11.80;92.00;;;;;;2085795;28;1434;-54
2021/01/09 05:20:34;;;;;;;;;;;11.80;92.10;;;;;;2086191;28;1324;-52
2021/01/09 05:21:54;;;;;;;;;;;11.80;91.90;;;;;;2095387;28;1237;-53
2021/01/09 05:23:15;;;;;;;;;;;11.70;92.00;;;;;;2079587;28;1423;-53
2021/01/09 05:24:35;;;;;;;;;;;11.70;92.00;;;;;;2083083;28;1393;-53
2021/01/09 05:25:54;;;;;;;;;;;11.70;92.40;;;;;;2091607;28;1374;-52
2021/01/09 05:27:14;;;;;;;;;;;11.70;92.00;;;;;;2091871;28;1379;-52
2021/01/09 05:28:33;;;;;;;;;;;11.70;92.50;;;;;;2089914;28;1499;-54
2021/01/09 05:29:53;;;;;;;;;;;11.70;92.10;;;;;;2084624;28;1139;-56
2021/01/09 05:31:13;;;;;;;;;;;11.70;92.10;;;;;;2089379;28;1906;-55
2021/01/09 05:32:32;;;;;;;;;;;11.70;92.10;;;;;;2090067;28;1342;-52
2021/01/09 05:33:52;;;;;;;;;;;11.70;92.10;;;;;;2087704;28;1200;-53
2021/01/09 05:35:14;;;;;;;;;;;11.70;92.20;;;;;;2088766;28;1337;-50
2021/01/09 05:36:33;;;;;;;;;;;11.70;92.30;;;;;;2080230;28;1222;-54
2021/01/09 05:37:52;;;;;;;;;;;11.70;92.20;;;;;;2075800;28;1393;-54
2021/01/09 05:39:11;;;;;;;;;;;11.70;92.30;;;;;;2092750;28;2081;-54
2021/01/09 05:40:37;;;;;;;;;;;11.70;92.50;;;;;;2092373;28;1370;-53
2021/01/09 05:41:57;;;;;;;;;;;11.60;92.50;;;;;;2088909;28;978;-53
2021/01/09 05:43:16;;;;;;;;;;;11.70;92.30;;;;;;2092400;28;1216;-52
2021/01/09 05:44:35;;;;;;;;;;;11.60;92.20;;;;;;2095621;28;987;-55
2021/01/09 05:45:55;;;;;;;;;;;11.60;92.30;;;;;;2086897;28;1094;-53
2021/01/09 05:47:14;;;;;;;;;;;11.60;92.30;;;;;;2082470;28;1408;-56
2021/01/09 05:48:34;;;;;;;;;;;11.60;92.40;;;;;;2082209;28;1523;-52
2021/01/09 05:49:54;;;;;;;;;;;11.60;92.80;;;;;;2083406;28;1348;-52
2021/01/09 05:51:13;;;;;;;;;;;11.60;92.70;;;;;;2083662;28;1883;-52
2021/01/09 05:52:38;;;;;;;;;;;11.60;92.60;;;;;;2080962;28;1181;-52
2021/01/09 05:53:58;;;;;;;;;;;11.60;92.60;;;;;;2080411;28;958;-53
2021/01/09 05:55:17;;;;;;;;;;;11.60;92.70;;;;;;2086944;28;1141;-53
2021/01/09 05:56:37;;;;;;;;;;;11.60;92.80;;;;;;2094936;28;1100;-54
2021/01/09 05:57:56;;;;;;;;;;;11.60;92.80;;;;;;2093949;28;1385;-54
2021/01/09 05:59:16;;;;;;;;;;;11.60;92.80;;;;;;2082716;28;1542;-54
2021/01/09 06:00:35;;;;;;;;;;;11.60;93.10;;;;;;2079434;28;1424;-54
2021/01/09 06:01:54;;;;;;;;;;;11.60;93.00;;;;;;2092723;28;1257;-54
2021/01/09 06:03:16;;;;;;;;;;;11.50;93.00;;;;;;2084585;28;1453;-54
2021/01/09 06:04:35;;;;;;;;;;;11.50;93.00;;;;;;2083326;28;1164;-53
2021/01/09 06:05:54;;;;;;;;;;;11.50;93.00;;;;;;2092609;28;1400;-54
2021/01/09 06:07:15;;;;;;;;;;;11.50;93.10;;;;;;2084114;28;1517;-54
2021/01/09 06:08:34;;;;;;;;;;;11.50;93.00;;;;;;2082099;28;1397;-51
2021/01/09 06:09:57;;;;;;;;;;;11.50;93.00;;;;;;2092700;28;1292;-53
2021/01/09 06:11:17;;;;;;;;;;;11.50;93.10;;;;;;2085708;28;1967;-52
2021/01/09 06:12:37;;;;;;;;;;;11.50;93.10;;;;;;2088442;28;1411;-53
2021/01/09 06:13:58;;;;;;;;;;;11.50;93.20;;;;;;2087455;28;1294;-54
2021/01/09 06:15:17;;;;;;;;;;;11.50;93.10;;;;;;2086175;28;1028;-53
2021/01/09 06:16:37;;;;;;;;;;;11.50;93.20;;;;;;2072395;28;757;-51
2021/01/09 06:17:57;;;;;;;;;;;11.50;93.30;;;;;;2077225;28;932;-52
2021/01/09 06:19:16;;;;;;;;;;;11.50;93.40;;;;;;2077266;28;1356;-53
2021/01/09 06:20:35;;;;;;;;;;;11.50;93.20;;;;;;2068402;28;2098;-51
2021/01/09 06:21:55;;;;;;;;;;;11.50;92.40;;;;;;2074074;28;805;-54
2021/01/09 06:23:14;;;;;;;;;;;11.50;92.00;;;;;;2085321;28;1196;-50
2021/01/09 06:24:33;;;;;;;;;;;11.50;91.50;;;;;;2072741;28;729;-51
2021/01/09 06:25:52;;;;;;;;;;;11.40;91.30;;;;;;2085516;28;721;-53
2021/01/09 06:27:16;;;;;;;;;;;11.40;91.30;;;;;;2075233;28;769;-53
2021/01/09 06:28:37;;;;;;;;;;;11.40;91.40;;;;;;2078573;28;1371;-50
2021/01/09 06:29:58;;;;;;;;;;;11.40;91.70;;;;;;2082648;28;765;-50
2021/01/09 06:31:20;;;;;;;;;;;11.40;91.80;;;;;;2070189;28;1958;-51
2021/01/09 06:32:39;;;;;;;;;;;11.40;91.90;;;;;;2070783;28;757;-52
2021/01/09 06:34:00;;;;;;;;;;;11.40;92.00;;;;;;2076964;28;734;-52
2021/01/09 06:35:19;;;;;;;;;;;11.40;91.90;;;;;;2071212;28;747;-53
2021/01/09 06:36:39;;;;;;;;;;;11.40;91.90;;;;;;2084207;28;1046;-53
2021/01/09 06:37:58;;;;;;;;;;;11.40;92.10;;;;;;2083931;28;1295;-51
2021/01/09 06:39:17;;;;;;;;;;;11.40;92.00;;;;;;2089457;28;1340;-52
2021/01/09 06:40:36;;;;;;;;;;;11.40;92.10;;;;;;2088348;28;1001;-51
2021/01/09 06:41:56;;;;;;;;;;;11.40;92.10;;;;;;2079185;28;772;-55
2021/01/09 06:43:15;;;;;;;;;;;11.40;92.30;;;;;;2088969;28;768;-50
2021/01/09 06:44:34;;;;;;;;;;;11.40;92.50;;;;;;2083576;28;1475;-51
2021/01/09 06:45:53;;;;;;;;;;;11.40;92.40;;;;;;2074060;28;1393;-52
2021/01/09 06:47:22;;;;;;;;;;;11.40;92.40;;;;;;2086553;28;1359;-52
2021/01/09 06:48:45;;;;;;;;;;;11.40;92.30;;;;;;2089539;28;1553;-53
2021/01/09 06:50:27;;;;;;;;;;;11.40;92.80;;;;;;2091989;28;1300;-53
2021/01/09 06:51:51;;;;;;;;;;;11.40;92.50;;;;;;2091875;28;1973;-53
2021/01/09 06:53:13;;;;;;;;;;;11.40;92.50;;;;;;2080178;28;1397;-55
2021/01/09 06:54:39;;;;;;;;;;;11.40;92.50;;;;;;2091412;28;1361;-55
2021/01/09 06:55:58;;;;;;;;;;;11.40;92.70;;;;;;2093355;28;1167;-54
2021/01/09 06:57:20;;;;;;;;;;;11.30;92.70;;;;;;2087284;28;1370;-55
2021/01/09 06:58:40;;;;;;;;;;;11.30;92.80;;;;;;2087390;28;1462;-52
2021/01/09 06:59:59;;;;;;;;;;;11.30;92.60;;;;;;2084638;28;1515;-53
2021/01/09 07:01:18;;;;;;;;;;;11.30;92.60;;;;;;2080568;28;793;-51
2021/01/09 07:02:38;;;;;;;;;;;11.30;92.70;;;;;;2081106;28;726;-53
2021/01/09 07:03:57;;;;;;;;;;;11.30;92.90;;;;;;2071743;28;746;-53
2021/01/09 07:05:19;;;;;;;;;;;11.30;92.80;;;;;;2067491;28;781;-54
2021/01/09 07:06:57;;;;;;;;;;;11.30;92.90;;;;;;2083000;28;796;-53
2021/01/09 07:08:23;;;;;;;;;;;11.30;92.90;;;;;;2075735;28;1037;-50
2021/01/09 07:09:42;;;;;;;;;;;11.30;92.80;;;;;;2099378;28;1010;-51
2021/01/09 07:11:02;;;;;;;;;;;11.30;93.10;;;;;;2085820;28;1043;-50
2021/01/09 07:12:23;;;;;;;;;;;11.30;93.00;;;;;;2098974;28;799;-54
2021/01/09 07:13:43;;;;;;;;;;;11.30;92.90;;;;;;2094225;28;759;-49
2021/01/09 07:15:06;;;;;;;;;;;11.30;93.30;;;;;;2095953;28;811;-54
2021/01/09 07:16:25;;;;;;;;;;;11.30;93.10;;;;;;2100199;28;744;-52
2021/01/09 07:17:45;;;;;;;;;;;11.30;93.20;;;;;;2099879;28;778;-54
2021/01/09 07:19:04;;;;;;;;;;;11.30;93.10;;;;;;2100065;28;1458;-54
2021/01/09 07:20:26;;;;;;;;;;;11.40;92.90;;;;;;2100324;28;739;-51
2021/01/09 07:21:45;;;;;;;;;;;11.40;92.90;;;;;;2091340;28;775;-50
2021/01/09 07:23:08;;;;;;;;;;;11.50;92.80;;;;;;2091595;28;1850;-53
2021/01/09 07:24:27;;;;;;;;;;;11.50;92.50;;;;;;2077276;28;923;-52
2021/01/09 07:25:46;;;;;;;;;;;11.60;92.50;;;;;;2082023;28;1053;-55
2021/01/09 07:27:06;;;;;;;;;;;11.60;92.20;;;;;;2091100;28;1049;-52
2021/01/09 07:28:25;;;;;;;;;;;11.70;91.80;;;;;;2096070;28;1402;-53
2021/01/09 07:29:44;;;;;;;;;;;11.80;91.40;;;;;;2096278;28;990;-49
2021/01/09 07:31:07;;;;;;;;;;;11.90;91.00;;;;;;2093796;28;938;-51
2021/01/09 07:32:36;;;;;;;;;;;11.90;90.60;;;;;;2091832;28;716;-53
2021/01/09 07:33:56;;;;;;;;;;;11.90;89.80;;;;;;2091819;28;747;-54
2021/01/09 07:35:25;;;;;;;;;;;12.00;89.00;;;;;;2091059;28;732;-54
2021/01/09 07:36:47;;;;;;;;;;;12.00;88.50;;;;;;2074772;28;794;-52
2021/01/09 07:38:06;;;;;;;;;;;12.10;87.90;;;;;;2079564;28;1357;-53
2021/01/09 07:39:25;;;;;;;;;;;12.10;87.10;;;;;;2092865;28;1423;-53
2021/01/09 07:40:45;;;;;;;;;;;12.20;86.50;;;;;;2091743;28;1322;-55
2021/01/09 07:42:23;;;;;;;;;;;12.20;85.70;;;;;;2087613;28;1434;-53
2021/01/09 07:43:42;;;;;;;;;;;12.30;85.30;;;;;;2087016;28;1446;-52
2021/01/09 07:45:05;;;;;;;;;;;12.30;84.30;;;;;;2089043;28;1325;-52
2021/01/09 07:46:25;;;;;;;;;;;12.40;83.90;;;;;;2096694;28;1353;-53
2021/01/09 07:47:45;;;;;;;;;;;12.40;83.30;;;;;;2091001;28;1417;-53
2021/01/09 07:49:04;;;;;;;;;;;12.50;82.90;;;;;;2082024;28;1559;-54
2021/01/09 07:50:23;;;;;;;;;;;12.50;82.30;;;;;;2090789;28;1263;-55
2021/01/09 07:51:46;;;;;;;;;;;12.60;81.90;;;;;;2094445;28;1959;-54
2021/01/09 07:53:06;;;;;;;;;;;12.60;81.30;;;;;;2095007;28;1372;-53
2021/01/09 07:54:35;;;;;;;;;;;12.70;80.70;;;;;;2096758;28;1387;-54
2021/01/09 07:55:54;;;;;;;;;;;12.80;80.30;;;;;;2094284;28;1391;-53